Aviation Forecast PDF Print E-mail

 met_logo

NATIONAL METEOROLOGICAL SERVICE OF BELIZE

Area Forecast for the Country of Belize


For the period from:

1200  27  NOVEMBER  2014

to

2400  27  NOVEMBER  2014

All Heights in the forecast are above sea level. PS= Positive, MS= Minus. All times are UTC.


A.

SPECIAL FEATURES of the METEOROLOGICAL SITUATION

HIGH PRESSURE RIDGE WILL  MAINTAIN WINDY, COOL AND MOIST WEATHER CONDITIONS.

B.

HEIGHT (Ft)

WIND (True Degrees and Knots)

TEMPERATURE (°C)

Surface

34012

PS26

2,000

36030

PS15

5,000

03025

PS14

10,000

07020

PS07


C.

CLOUDS (Amount, Type, Ceiling and Top(optional))

 SCT/BKN CUSC BASES 1,400-2,400 FT.; TOPS 8,000-10,000FT.

 BKN SC BASES LYRD BETWEEN 3,500-4,500FT.

 

 

 

D.

SURFACE VISIBILITY:    REDUCED TO 2-5KM IN SHRA / RA.;OTHERWISE GREATER THAN 10KM.


E.

WEATHER:  VARIABLY CLOUDY AND WINDY WEATHER. A FEW SHOWERS AND  PERIODS OF RAIN  WILL OCCUR MOSTLY IN THE SOUTH AND SOME COASTAL AREAS.


Remarks, Warnings, Turbulence

Barometric Changes

LOW CLOUDS COVERING HILLS

STEADY AND DIURNAL

G.

OUTLOOK:

TO 1200 27 NOV-

SIMILAR WEATHER CONDITIONS TO PREVAIL. 

H.

TAF  MZBZ

271115Z 2712/2812 34012KT 9999 SCT022 BKN040 PROB40 TEMPO 2712/2803 4000 RA BKN015 BKN035=

I.

Meteorological Office:

BELIZE 

Issued at:

1130 27 NOVEMBER 2014

Forecaster:

F.Tench Jr.